Time;durP1;ratioP1;P1;durP2;ratioP2;P2;SDS_P1;SDS_P2;PMS_P1;PMS_P2;Temp;Humidity;BMP_temperature;BMP_pressure;BME280_temperature;BME280_humidity;BME280_pressure;Samples;Min_cycle;Max_cycle;Signal;HPM_P1;HPM_P2
2022/04/17 00:02:03;;;;;;;0.20;0.20;;;;;;;19.71;40.48;102675.72;5152562;27;20061;-30
2022/04/17 00:04:29;;;;;;;0.10;0.10;;;;;;;19.70;40.61;102676.81;5152938;27;20049;-31
2022/04/17 00:06:55;;;;;;;0.20;0.20;;;;;;;19.71;40.76;102680.44;5153348;27;20042;-31
2022/04/17 00:09:20;;;;;;;0.20;0.20;;;;;;;19.70;40.51;102679.59;5151745;27;20075;-31
2022/04/17 00:11:46;;;;;;;0.20;0.20;;;;;;;19.70;40.72;102676.00;5151966;27;20047;-31
2022/04/17 00:14:12;;;;;;;0.20;0.20;;;;;;;19.70;40.57;102676.00;5152319;27;20082;-31
2022/04/17 00:16:41;;;;;;;0.20;0.20;;;;;;;19.70;40.57;102668.53;5152772;27;20039;-29
2022/04/17 00:19:08;;;;;;;0.20;0.20;;;;;;;19.70;40.51;102668.53;5152179;27;20084;-30
2022/04/17 00:21:33;;;;;;;0.20;0.20;;;;;;;19.69;40.73;102669.63;5152842;27;20118;-30
2022/04/17 00:23:59;;;;;;;0.20;0.20;;;;;;;19.71;40.58;102663.84;5152793;27;20049;-29
2022/04/17 00:26:25;;;;;;;0.20;0.20;;;;;;;19.70;40.67;102665.75;5133383;27;20045;-30
2022/04/17 00:28:51;;;;;;;0.20;0.20;;;;;;;19.70;40.43;102660.25;5152078;27;20046;-31
2022/04/17 00:31:16;;;;;;;0.20;0.20;;;;;;;19.69;40.72;102658.56;5150615;27;20064;-30
2022/04/17 00:33:43;;;;;;;0.20;0.20;;;;;;;19.70;40.68;102662.16;5151566;27;20388;-31
2022/04/17 00:36:08;;;;;;;0.20;0.20;;;;;;;19.71;40.30;102666.59;5133905;27;20762;-30
2022/04/17 00:38:34;;;;;;;0.20;0.20;;;;;;;19.69;40.41;102664.09;5151201;27;20043;-32
2022/04/17 00:41:01;;;;;;;0.20;0.20;;;;;;;19.69;40.51;102653.03;5152284;27;20043;-30
2022/04/17 00:43:30;;;;;;;0.20;0.20;;;;;;;19.69;40.30;102653.03;5151328;27;20077;-30
2022/04/17 00:45:56;;;;;;;0.20;0.20;;;;;;;19.70;40.35;102654.72;5152525;27;20085;-30
2022/04/17 00:48:22;;;;;;;0.20;0.20;;;;;;;19.70;40.43;102651.94;5132979;27;20043;-31
2022/04/17 00:50:51;;;;;;;0.20;0.20;;;;;;;19.71;40.49;102650.03;5116503;27;20130;-29
2022/04/17 00:53:18;;;;;;;0.20;0.20;;;;;;;19.70;40.37;102649.19;5152094;27;20073;-31
2022/04/17 00:55:44;;;;;;;0.20;0.20;;;;;;;19.69;40.36;102647.50;5133997;27;20082;-31
2022/04/17 00:58:10;;;;;;;0.20;0.20;;;;;;;19.70;40.57;102643.66;5147991;27;20078;-31
2022/04/17 01:00:36;;;;;;;0.20;0.20;;;;;;;19.69;40.38;102647.50;5151761;27;20055;-30
2022/04/17 01:03:02;;;;;;;0.20;0.20;;;;;;;19.69;40.61;102641.97;5148083;27;20047;-30
2022/04/17 01:05:27;;;;;;;0.20;0.20;;;;;;;19.69;40.33;102638.34;5133032;27;20081;-31
2022/04/17 01:07:53;;;;;;;0.20;0.20;;;;;;;19.69;40.53;102636.44;5151415;27;20038;-29
2022/04/17 01:10:19;;;;;;;0.20;0.20;;;;;;;19.70;40.62;102645.59;5151968;27;20047;-30
2022/04/17 01:12:45;;;;;;;0.20;0.20;;;;;;;19.70;40.53;102646.41;5151061;27;20061;-31
2022/04/17 01:15:11;;;;;;;0.20;0.20;;;;;;;19.68;40.38;102645.81;5133739;27;20127;-30
2022/04/17 01:17:37;;;;;;;0.20;0.20;;;;;;;19.70;40.59;102634.53;5132791;27;20446;-30
2022/04/17 01:20:04;;;;;;;0.20;0.20;;;;;;;19.70;40.33;102642.81;5150122;27;20134;-31
2022/04/17 01:22:30;;;;;;;0.17;0.17;;;;;;;19.70;40.50;102631.75;5132768;27;20078;-30
2022/04/17 01:27:41;;;;;;;0.20;0.20;;;;;;;19.70;40.28;102624.31;5136639;27;20070;-30
2022/04/17 01:30:07;;;;;;;0.20;0.20;;;;;;;19.70;40.50;102635.38;5150604;27;21326;-30
2022/04/17 01:32:33;;;;;;;0.20;0.20;;;;;;;19.70;40.43;102629.00;5132783;27;20049;-30
2022/04/17 01:34:59;;;;;;;0.17;0.17;;;;;;;19.69;40.58;102628.16;5151264;27;20081;-30
2022/04/17 01:37:25;;;;;;;0.20;0.20;;;;;;;19.69;40.45;102617.09;5150267;27;20039;-30
2022/04/17 01:39:50;;;;;;;0.20;0.20;;;;;;;19.69;40.56;102613.47;5150360;27;20072;-31
2022/04/17 01:42:16;;;;;;;0.10;0.10;;;;;;;19.70;40.47;102617.94;5150576;27;20393;-31
2022/04/17 01:44:42;;;;;;;0.20;0.20;;;;;;;19.69;40.37;102622.63;5150589;27;20051;-29
2022/04/17 01:47:08;;;;;;;0.20;0.20;;;;;;;19.69;40.45;102613.47;5148350;27;20069;-30
2022/04/17 01:49:34;;;;;;;0.20;0.20;;;;;;;19.69;40.59;102616.22;5150078;27;20050;-31
2022/04/17 01:52:01;;;;;;;0.20;0.20;;;;;;;19.70;40.66;102620.69;5150173;27;20138;-29
2022/04/17 01:54:27;;;;;;;0.20;0.20;;;;;;;19.69;40.64;102619.00;5132832;27;20045;-30
2022/04/17 01:56:54;;;;;;;0.20;0.20;;;;;;;19.69;40.20;102625.41;5131603;27;20520;-29
2022/04/17 01:59:21;;;;;;;0.20;0.20;;;;;;;19.69;40.39;102625.41;5151039;27;20081;-29
2022/04/17 02:01:46;;;;;;;0.20;0.20;;;;;;;19.69;40.28;102619.88;5149849;27;20070;-29
2022/04/17 02:04:13;;;;;;;0.20;0.20;;;;;;;19.69;40.66;102616.22;5133066;27;20054;-29
2022/04/17 02:06:40;;;;;;;0.20;0.20;;;;;;;19.69;40.22;102616.22;5150489;27;20137;-30
2022/04/17 02:09:08;;;;;;;0.20;0.20;;;;;;;19.70;40.52;102617.94;5151393;27;20066;-30
2022/04/17 02:11:33;;;;;;;0.20;0.20;;;;;;;19.69;40.62;102610.72;5149941;27;20078;-30
2022/04/17 02:14:00;;;;;;;0.20;0.20;;;;;;;19.69;40.42;102602.41;5132242;27;20081;-32
2022/04/17 02:16:26;;;;;;;0.20;0.20;;;;;;;19.67;40.29;102605.44;5132515;27;20058;-31
2022/04/17 02:18:52;;;;;;;0.20;0.20;;;;;;;19.68;40.26;102618.16;5149104;27;20119;-30
2022/04/17 02:21:19;;;;;;;0.10;0.10;;;;;;;19.69;40.41;102597.75;5151077;27;20430;-30
2022/04/17 02:23:45;;;;;;;0.20;0.20;;;;;;;19.67;40.49;102599.91;5132372;27;20513;-30
2022/04/17 02:26:11;;;;;;;0.10;0.10;;;;;;;19.68;40.64;102598.81;5131766;27;20050;-29
2022/04/17 02:28:38;;;;;;;0.15;0.15;;;;;;;19.68;40.54;102589.69;5132498;27;20122;-30
2022/04/17 02:31:04;;;;;;;0.20;0.20;;;;;;;19.67;40.43;102597.13;5151042;27;20484;-30
2022/04/17 02:33:30;;;;;;;0.20;0.20;;;;;;;19.68;40.43;102597.97;5150035;27;20065;-31
2022/04/17 02:35:57;;;;;;;0.20;0.20;;;;;;;19.68;40.28;102598.81;5150844;27;20134;-30
2022/04/17 02:38:23;;;;;;;0.20;0.20;;;;;;;19.68;40.42;102595.22;5150665;27;20070;-30
2022/04/17 02:40:48;;;;;;;0.20;0.20;;;;;;;19.69;40.55;102591.34;5150258;27;20480;-30
2022/04/17 02:43:14;;;;;;;0.20;0.20;;;;;;;19.68;40.34;102593.28;5149926;27;20078;-30
2022/04/17 02:45:40;;;;;;;0.20;0.20;;;;;;;19.69;40.62;102586.69;5131299;27;20490;-30
2022/04/17 02:48:06;;;;;;;0.20;0.20;;;;;;;19.70;40.32;102590.28;5149354;27;20050;-30
2022/04/17 02:50:32;;;;;;;0.20;0.20;;;;;;;19.69;40.39;102589.47;5133312;27;20049;-32
2022/04/17 02:52:58;;;;;;;0.20;0.20;;;;;;;19.68;40.30;102585.00;5135157;27;20058;-29
2022/04/17 02:55:23;;;;;;;0.20;0.20;;;;;;;19.69;40.44;102594.13;5154087;27;20380;-31
2022/04/17 02:57:49;;;;;;;0.20;0.20;;;;;;;19.68;40.20;102587.75;5153679;27;20135;-31
2022/04/17 03:00:15;;;;;;;0.20;0.20;;;;;;;19.69;40.46;102594.13;5152168;27;20114;-31
2022/04/17 03:05:44;;;;;;;0.20;0.20;;;;;;;19.68;40.37;102587.75;5136723;27;20074;-30
2022/04/17 03:08:12;;;;;;;0.20;0.20;;;;;;;19.68;40.23;102585.00;5136348;27;20070;-30
2022/04/17 03:10:39;;;;;;;0.10;0.10;;;;;;;19.68;40.55;102598.81;5116406;27;20100;-31
2022/04/17 03:13:06;;;;;;;0.10;0.10;;;;;;;19.67;40.32;102594.38;5152389;27;20141;-29
2022/04/17 03:15:33;;;;;;;0.20;0.20;;;;;;;19.68;40.17;102592.44;5153465;27;20430;-31
2022/04/17 03:17:59;;;;;;;0.20;0.20;;;;;;;19.68;40.34;102587.75;5135237;27;20077;-30
2022/04/17 03:20:26;;;;;;;0.20;0.20;;;;;;;19.68;40.16;102590.53;5152693;27;20123;-31
2022/04/17 03:22:51;;;;;;;0.20;0.20;;;;;;;19.67;40.46;102588.84;5152322;27;20154;-30
2022/04/17 03:25:17;;;;;;;0.20;0.20;;;;;;;19.68;40.31;102582.22;5155861;27;20469;-30
2022/04/17 03:27:46;;;;;;;0.20;0.20;;;;;;;19.67;40.60;102580.56;5135408;27;20073;-32
2022/04/17 03:30:14;;;;;;;0.20;0.20;;;;;;;19.67;40.23;102572.25;5152809;27;20320;-31
2022/04/17 03:32:41;;;;;;;;;;;;;;;19.66;40.44;102567.84;5154280;27;20082;-29
2022/04/17 03:35:07;;;;;;;0.20;0.20;;;;;;;19.66;40.18;102567.84;5153066;27;19986;-30
2022/04/17 03:37:33;;;;;;;0.20;0.20;;;;;;;19.67;40.36;102574.19;5153106;27;20121;-30
2022/04/17 03:39:59;;;;;;;0.20;0.20;;;;;;;19.68;40.27;102570.34;5134458;27;20053;-31
2022/04/17 03:42:24;;;;;;;0.20;0.20;;;;;;;19.68;40.52;102568.41;5152720;27;20078;-31
2022/04/17 03:44:50;;;;;;;0.20;0.20;;;;;;;19.68;40.18;102567.56;5153041;27;20484;-29
2022/04/17 03:47:16;;;;;;;0.20;0.20;;;;;;;19.68;40.19;102559.28;5153322;27;20735;-29
2022/04/17 03:49:43;;;;;;;0.20;0.20;;;;;;;19.68;40.30;102568.41;5151496;27;20039;-29
2022/04/17 03:52:08;;;;;;;0.20;0.20;;;;;;;19.67;40.39;102574.19;5135206;27;20078;-31
2022/04/17 03:54:34;;;;;;;0.20;0.20;;;;;;;19.67;40.19;102575.03;5134620;27;20053;-29
2022/04/17 03:57:00;;;;;;;0.20;0.20;;;;;;;19.67;40.23;102575.03;5153276;27;20049;-30
2022/04/17 03:59:25;;;;;;;0.13;0.13;;;;;;;19.67;40.43;102574.19;5151556;27;20132;-29
2022/04/17 04:01:51;;;;;;;0.10;0.10;;;;;;;19.67;40.15;102571.44;5152585;27;20038;-31
2022/04/17 04:04:18;;;;;;;0.20;0.20;;;;;;;19.67;40.29;102566.75;5149724;27;20043;-30
2022/04/17 04:06:44;;;;;;;0.20;0.20;;;;;;;19.67;40.37;102563.13;5151342;27;20078;-30
2022/04/17 04:09:10;;;;;;;0.20;0.20;;;;;;;19.67;40.30;102557.59;5134231;27;20070;-31
2022/04/17 04:11:36;;;;;;;0.20;0.20;;;;;;;19.67;40.26;102560.38;5133789;27;20409;-29
2022/04/17 04:14:05;;;;;;;0.20;0.20;;;;;;;19.67;40.15;102563.13;5153335;27;20149;-31
2022/04/17 04:16:31;;;;;;;0.20;0.20;;;;;;;19.67;40.36;102552.09;5152648;27;20130;-31
2022/04/17 04:18:56;;;;;;;0.20;0.20;;;;;;;19.68;40.20;102548.22;5150647;27;20068;-31
2022/04/17 04:21:22;;;;;;;0.20;0.20;;;;;;;19.66;40.10;102544.88;5153204;27;20043;-30
2022/04/17 04:23:48;;;;;;;0.20;0.20;;;;;;;19.67;40.05;102541.84;5150559;27;20610;-30
2022/04/17 04:26:14;;;;;;;0.20;0.20;;;;;;;19.67;40.26;102539.09;5153546;27;20065;-30
2022/04/17 04:28:39;;;;;;;0.20;0.20;;;;;;;19.68;40.21;102545.47;5152773;27;20769;-29
2022/04/17 04:31:07;;;;;;;0.20;0.20;;;;;;;19.67;40.37;102535.50;5152384;27;20045;-30
2022/04/17 04:33:33;;;;;;;0.10;0.10;;;;;;;19.67;40.34;102538.25;5116685;27;20096;-30
2022/04/17 04:35:59;;;;;;;0.10;0.10;;;;;;;19.65;40.14;102538.53;5133460;27;20084;-32
2022/04/17 04:38:26;;;;;;;0.20;0.20;;;;;;;19.67;40.32;102541.03;5115389;27;20521;-29
2022/04/17 04:40:51;;;;;;;0.20;0.20;;;;;;;19.66;40.23;102539.34;5130278;27;20177;-29
2022/04/17 04:43:17;;;;;;;0.20;0.20;;;;;;;19.67;40.44;102541.03;5151869;27;20378;-30
2022/04/17 04:46:14;;;;;;;0.20;0.20;;;;;;;19.67;40.23;102539.09;5133258;27;20034;-30
2022/04/17 04:51:14;;;;;;;0.20;0.20;;;;;;;19.66;40.13;102526.38;5124607;27;20139;-30
2022/04/17 04:53:41;;;;;;;0.20;0.20;;;;;;;19.66;40.42;102522.78;5152343;27;20415;-29
2022/04/17 04:56:07;;;;;;;0.20;0.20;;;;;;;19.66;40.00;102526.38;5152863;27;20456;-30
2022/04/17 04:58:32;;;;;;;0.20;0.20;;;;;;;19.66;40.00;102529.13;5133711;27;20121;-29
2022/04/17 05:00:58;;;;;;;0.20;0.20;;;;;;;19.66;40.24;102529.13;5132123;27;21311;-29
2022/04/17 05:03:25;;;;;;;0.20;0.20;;;;;;;19.67;40.14;102530.81;5151197;27;20046;-31
2022/04/17 05:05:51;;;;;;;0.20;0.20;;;;;;;19.66;40.10;102533.81;5132864;27;20046;-30
2022/04/17 05:08:19;;;;;;;0.20;0.20;;;;;;;19.65;40.24;102538.53;5152122;27;20077;-30
2022/04/17 05:10:46;;;;;;;0.10;0.10;;;;;;;19.64;40.38;102536.81;5133193;27;20133;-31
2022/04/17 05:13:12;;;;;;;0.10;0.10;;;;;;;19.66;40.02;102531.06;5132175;27;20125;-29
2022/04/17 05:15:38;;;;;;;0.20;0.20;;;;;;;19.66;40.24;102537.44;5151160;27;20088;-29
2022/04/17 05:18:04;;;;;;;0.20;0.20;;;;;;;19.64;40.02;102531.28;5152289;27;20043;-30
2022/04/17 05:20:33;;;;;;;0.10;0.10;;;;;;;19.66;40.10;102533.81;5150147;27;20074;-29
2022/04/17 05:23:17;;;;;;;0.20;0.20;;;;;;;19.66;40.03;102536.59;5152926;27;20463;-29
2022/04/17 05:25:45;;;;;;;0.20;0.20;;;;;;;19.65;40.36;102540.44;5136508;27;20089;-29
2022/04/17 05:28:10;;;;;;;0.20;0.20;;;;;;;19.66;39.93;102544.88;5151922;27;20050;-32
2022/04/17 05:30:36;;;;;;;0.20;0.20;;;;;;;19.66;40.29;102542.13;5151152;27;20163;-31
2022/04/17 05:33:01;;;;;;;0.20;0.20;;;;;;;19.66;40.07;102542.13;5152120;27;20051;-30
2022/04/17 05:35:27;;;;;;;0.20;0.20;;;;;;;19.65;39.99;102544.03;5150882;27;20043;-31
2022/04/17 05:37:53;;;;;;;0.20;0.20;;;;;;;19.66;40.25;102539.34;5150700;27;20043;-29
2022/04/17 05:40:18;;;;;;;0.20;0.20;;;;;;;19.65;40.00;102540.44;5151535;27;20122;-31
2022/04/17 05:42:44;;;;;;;0.20;0.20;;;;;;;19.66;39.95;102536.59;5150465;27;20130;-31
2022/04/17 05:45:10;;;;;;;0.20;0.20;;;;;;;19.66;39.92;102540.19;5151620;27;20043;-31
2022/04/17 05:47:36;;;;;;;0.20;0.20;;;;;;;19.66;40.25;102536.59;5150293;27;20042;-30
2022/04/17 05:50:02;;;;;;;0.20;0.20;;;;;;;19.66;39.95;102542.13;5149295;27;20180;-30
2022/04/17 05:52:32;;;;;;;0.20;0.20;;;;;;;19.66;40.18;102539.34;5150362;27;20038;-31
2022/04/17 05:54:57;;;;;;;0.20;0.20;;;;;;;19.65;40.14;102541.28;5151020;27;20103;-29
2022/04/17 05:57:23;;;;;;;0.20;0.20;;;;;;;19.65;39.89;102543.22;5151566;27;20039;-30
2022/04/17 05:59:49;;;;;;;0.20;0.20;;;;;;;19.66;40.26;102542.94;5150518;27;20141;-31
2022/04/17 06:02:15;;;;;;;0.20;0.20;;;;;;;19.65;40.20;102546.81;5150605;27;20039;-32
2022/04/17 06:04:41;;;;;;;0.20;0.20;;;;;;;19.65;39.90;102537.69;5151632;27;20047;-28
2022/04/17 06:07:08;;;;;;;0.20;0.20;;;;;;;19.65;40.02;102534.91;5150463;27;20422;-31
2022/04/17 06:09:34;;;;;;;0.20;0.20;;;;;;;19.64;40.06;102534.06;5149837;27;20072;-32
2022/04/17 06:12:00;;;;;;;0.20;0.20;;;;;;;19.65;40.20;102541.28;5132401;27;20126;-30
2022/04/17 06:14:26;;;;;;;0.20;0.20;;;;;;;19.65;40.08;102537.69;5114143;27;20105;-30
2022/04/17 06:16:52;;;;;;;0.20;0.20;;;;;;;19.65;39.82;102532.16;5150512;27;20401;-29
2022/04/17 06:19:17;;;;;;;0.20;0.20;;;;;;;19.64;40.11;102530.44;5149190;27;21064;-29
2022/04/17 06:21:43;;;;;;;0.20;0.20;;;;;;;19.65;40.28;102540.44;5151172;27;20050;-29
2022/04/17 06:24:09;;;;;;;0.20;0.20;;;;;;;19.64;40.25;102525.75;5150456;27;20481;-29
2022/04/17 06:26:35;;;;;;;0.20;0.20;;;;;;;19.64;40.20;102531.28;5154602;27;20050;-31
2022/04/17 06:29:05;;;;;;;0.20;0.20;;;;;;;19.64;40.13;102531.28;5154507;27;20055;-31
2022/04/17 06:31:31;;;;;;;0.20;0.20;;;;;;;19.65;40.23;102540.44;5136020;27;20524;-30
2022/04/17 06:33:57;;;;;;;0.20;0.20;;;;;;;19.64;39.81;102534.06;5152132;27;20076;-30
2022/04/17 06:36:24;;;;;;;0.20;0.20;;;;;;;19.65;40.08;102545.97;5152513;27;20052;-30
2022/04/17 06:38:50;;;;;;;0.20;0.20;;;;;;;19.64;39.92;102542.34;5134020;27;20047;-30
2022/04/17 06:41:16;;;;;;;0.20;0.20;;;;;;;19.65;40.12;102530.22;5152259;27;20045;-29
2022/04/17 06:43:48;;;;;;;0.20;0.20;;;;;;;19.64;40.30;102531.28;5153168;27;20131;-30
2022/04/17 06:46:13;;;;;;;0.20;0.20;;;;;;;19.64;39.98;102531.28;5154078;27;20395;-31
2022/04/17 06:48:39;;;;;;;0.20;0.20;;;;;;;19.64;39.90;102524.94;5152326;27;20086;-29
2022/04/17 06:51:05;;;;;;;0.20;0.20;;;;;;;19.65;40.21;102518.34;5154714;27;20469;-29
2022/04/17 06:53:30;;;;;;;0.20;0.20;;;;;;;19.63;40.21;102514.97;5154053;27;20374;-31
2022/04/17 06:55:56;;;;;;;0.20;0.20;;;;;;;19.64;40.21;102511.09;5153735;27;20050;-30
2022/04/17 06:58:22;;;;;;;0.20;0.20;;;;;;;19.62;40.17;102511.38;5153700;27;20043;-30
2022/04/17 07:00:48;;;;;;;0.20;0.20;;;;;;;19.63;40.20;102513.03;5153554;27;20058;-30
2022/04/17 07:03:14;;;;;;;0.20;0.20;;;;;;;19.64;40.24;102508.34;5154042;27;20183;-30
2022/04/17 07:05:41;;;;;;;0.20;0.20;;;;;;;19.63;40.20;102498.38;5153567;27;20046;-29
2022/04/17 07:08:07;;;;;;;0.20;0.20;;;;;;;19.63;40.01;102507.50;5153821;27;20460;-30
2022/04/17 07:10:37;;;;;;;0.20;0.20;;;;;;;19.63;40.16;102507.50;5152678;27;20081;-30
2022/04/17 07:13:03;;;;;;;0.20;0.20;;;;;;;19.63;39.76;102501.97;5153145;27;20142;-29
2022/04/17 07:15:28;;;;;;;0.15;0.15;;;;;;;19.63;40.12;102499.22;5154842;27;20043;-29
2022/04/17 07:17:56;;;;;;;0.17;0.17;;;;;;;19.63;40.00;102499.22;5153161;27;20061;-29
2022/04/17 07:20:22;;;;;;;0.20;0.20;;;;;;;19.63;39.96;102487.31;5152275;27;20068;-34
2022/04/17 07:22:49;;;;;;;0.20;0.20;;;;;;;19.62;40.13;102494.78;5154538;27;20228;-31
2022/04/17 07:25:19;;;;;;;0.20;0.20;;;;;;;19.64;39.91;102486.22;5135452;27;20245;-30
2022/04/17 07:27:48;;;;;;;0.20;0.20;;;;;;;19.64;39.87;102475.19;5135313;27;20458;-30
2022/04/17 07:30:16;;;;;;;0.10;0.10;;;;;;;19.64;40.05;102489.81;5153849;27;20527;-30
2022/04/17 07:32:44;;;;;;;0.20;0.20;;;;;;;19.63;39.99;102499.22;5153068;27;20504;-30
2022/04/17 07:35:10;;;;;;;0.10;0.10;;;;;;;19.63;40.03;102488.16;5135029;27;20049;-30
2022/04/17 07:37:36;;;;;;;0.20;0.20;;;;;;;19.61;39.81;102501.41;5133974;27;20119;-30
2022/04/17 07:40:10;;;;;;;0.20;0.20;;;;;;;19.63;40.09;102496.44;5153183;27;20050;-30
2022/04/17 07:42:35;;;;;;;0.20;0.20;;;;;;;19.63;40.18;102487.31;5134489;27;20066;-31
2022/04/17 07:45:01;;;;;;;0.20;0.20;;;;;;;19.63;40.03;102496.44;5153485;27;20053;-30
2022/04/17 07:47:26;;;;;;;0.20;0.20;;;;;;;19.63;40.04;102501.13;5152891;27;20042;-30
2022/04/17 07:49:52;;;;;;;0.20;0.20;;;;;;;19.63;40.01;102490.09;5151254;27;20039;-30
2022/04/17 07:52:18;;;;;;;0.20;0.20;;;;;;;19.62;40.03;102497.53;5152375;27;20050;-30
2022/04/17 07:54:47;;;;;;;0.17;0.17;;;;;;;19.63;40.15;102490.91;5153543;27;20123;-31
2022/04/17 07:57:14;;;;;;;0.20;0.20;;;;;;;19.63;39.91;102495.63;5153983;27;20073;-30
2022/04/17 07:59:41;;;;;;;0.20;0.20;;;;;;;19.62;40.03;102486.50;5151912;27;20131;-29
2022/04/17 08:02:39;;;;;;;0.20;0.20;;;;;;;19.63;40.10;102487.31;5151243;27;20129;-30
2022/04/17 08:05:06;;;;;;;0.15;0.15;;;;;;;19.62;39.79;102486.50;5153462;27;20396;-29
2022/04/17 08:07:31;;;;;;;0.20;0.20;;;;;;;19.63;40.22;102487.31;5152104;27;20077;-30
2022/04/17 08:09:57;;;;;;;0.20;0.20;;;;;;;19.62;39.81;102485.66;5152190;27;20050;-29
2022/04/17 08:12:23;;;;;;;0.20;0.20;;;;;;;19.62;39.87;102478.19;5152269;27;20043;-30
2022/04/17 08:14:48;;;;;;;0.20;0.20;;;;;;;19.62;40.19;102480.13;5152937;27;20066;-30
2022/04/17 08:17:14;;;;;;;0.20;0.20;;;;;;;19.63;39.91;102485.41;5153286;27;20090;-31
2022/04/17 08:19:39;;;;;;;0.20;0.20;;;;;;;19.62;40.10;102480.97;5150849;27;20039;-29
2022/04/17 08:22:05;;;;;;;0.20;0.20;;;;;;;19.63;39.95;102484.56;5152733;27;20053;-31
2022/04/17 08:24:31;;;;;;;0.20;0.20;;;;;;;19.62;40.18;102480.97;5158398;27;20043;-30
2022/04/17 08:26:58;;;;;;;0.20;0.20;;;;;;;19.63;39.79;102484.56;5151367;27;20039;-30
2022/04/17 08:29:24;;;;;;;0.20;0.20;;;;;;;19.63;39.83;102479.03;5152575;27;20087;-30
2022/04/17 08:31:49;;;;;;;0.10;0.10;;;;;;;19.63;39.88;102479.88;5151373;27;20049;-29
2022/04/17 08:34:15;;;;;;;0.20;0.20;;;;;;;19.63;39.93;102479.03;5152070;27;20537;-30
2022/04/17 08:36:41;;;;;;;0.20;0.20;;;;;;;19.63;39.98;102482.63;5152209;27;20043;-30
2022/04/17 08:39:06;;;;;;;0.20;0.20;;;;;;;19.61;39.87;102476.53;5152053;27;20043;-29
2022/04/17 08:41:33;;;;;;;0.20;0.20;;;;;;;19.62;40.13;102475.44;5149952;27;20045;-31
2022/04/17 08:43:58;;;;;;;0.20;0.20;;;;;;;19.63;40.25;102476.28;5151470;27;20042;-29
2022/04/17 08:46:24;;;;;;;0.20;0.20;;;;;;;19.63;40.09;102474.34;5150627;27;20103;-30
2022/04/17 08:48:51;;;;;;;0.20;0.20;;;;;;;19.63;40.18;102474.34;5129938;27;20103;-30
2022/04/17 08:51:17;;;;;;;0.20;0.20;;;;;;;19.63;40.23;102465.22;5134829;27;20074;-30
2022/04/17 08:53:43;;;;;;;0.20;0.20;;;;;;;19.62;40.01;102467.13;5151689;27;20078;-30
2022/04/17 08:56:09;;;;;;;0.20;0.20;;;;;;;19.61;40.13;102473.75;5152410;27;20158;-30
2022/04/17 08:58:35;;;;;;;0.20;0.20;;;;;;;19.62;39.92;102464.38;5152244;27;20046;-30
2022/04/17 09:01:00;;;;;;;0.20;0.20;;;;;;;19.62;40.01;102458.00;5151270;27;20055;-30
2022/04/17 09:03:26;;;;;;;0.20;0.20;;;;;;;19.61;39.97;102457.19;5150973;27;20043;-29
2022/04/17 09:05:53;;;;;;;0.20;0.20;;;;;;;19.62;40.27;102452.50;5153025;27;20050;-30
2022/04/17 09:08:21;;;;;;;0.20;0.20;;;;;;;19.61;40.27;102451.66;5151561;27;20073;-30
2022/04/17 09:10:55;;;;;;;0.20;0.20;;;;;;;19.62;40.02;102444.19;5151426;27;20504;-29
2022/04/17 09:13:36;;;;;;;0.10;0.10;;;;;;;19.62;40.13;102444.19;5152316;27;20082;-29
2022/04/17 09:16:03;;;;;;;0.20;0.20;;;;;;;19.62;39.89;102444.19;5151232;27;20460;-30
2022/04/17 09:18:31;;;;;;;0.20;0.20;;;;;;;19.62;40.20;102439.50;5149261;27;20584;-32
2022/04/17 09:20:57;;;;;;;0.20;0.20;;;;;;;19.61;39.97;102437.84;5150532;27;20066;-29
2022/04/17 09:23:40;;;;;;;0.20;0.20;;;;;;;19.62;40.14;102427.63;5153013;27;20129;-30
2022/04/17 09:26:07;;;;;;;0.20;0.20;;;;;;;19.61;40.11;102431.47;5133037;27;20070;-30
2022/04/17 09:28:34;;;;;;;0.20;0.20;;;;;;;19.61;40.16;102431.47;5152591;27;20460;-29
2022/04/17 09:31:01;;;;;;;0.20;0.20;;;;;;;19.61;40.14;102426.78;5150143;27;20142;-30
2022/04/17 09:33:42;;;;;;;0.20;0.20;;;;;;;19.60;39.91;102430.56;5132829;27;20314;-31
2022/04/17 09:36:08;;;;;;;0.20;0.20;;;;;;;19.61;40.13;102426.78;5131641;27;20045;-31
2022/04/17 09:38:39;;;;;;;0.20;0.20;;;;;;;19.61;40.01;102417.66;5151106;27;20039;-30
2022/04/17 09:41:07;;;;;;;0.20;0.20;;;;;;;19.63;40.10;102415.47;5151159;27;20041;-31
2022/04/17 09:43:35;;;;;;;0.13;0.13;;;;;;;19.62;40.15;102408.28;5150840;27;20137;-30
2022/04/17 09:46:09;;;;;;;0.20;0.20;;;;;;;19.62;40.13;102403.56;5132179;27;20099;-27
2022/04/17 09:48:36;;;;;;;0.20;0.20;;;;;;;19.62;40.19;102399.97;5114913;27;21208;-30
2022/04/17 09:51:26;;;;;;;0.10;0.10;;;;;;;19.61;40.18;102396.38;5131454;27;20053;-29
2022/04/17 09:53:58;;;;;;;0.20;0.20;;;;;;;19.62;39.74;102397.22;5132421;27;20043;-31
2022/04/17 09:56:40;;;;;;;0.20;0.20;;;;;;;19.62;39.88;102377.88;5132883;27;20043;-31
2022/04/17 09:59:16;;;;;;;0.13;0.13;;;;;;;19.61;40.10;102382.56;5131777;27;20155;-33
2022/04/17 10:01:44;;;;;;;0.20;0.20;;;;;;;19.60;40.08;102367.00;5132055;27;20223;-30
2022/04/17 10:04:10;;;;;;;0.20;0.20;;;;;;;19.62;40.06;102364.06;5150533;27;20378;-30
2022/04/17 10:06:36;;;;;;;0.10;0.10;;;;;;;19.61;40.05;102360.47;5150711;27;20093;-30
2022/04/17 10:09:02;;;;;;;0.20;0.20;;;;;;;19.61;39.91;102354.94;5150837;27;20081;-31
2022/04/17 10:11:28;;;;;;;0.20;0.20;;;;;;;19.61;40.13;102356.84;5150980;27;20429;-31
2022/04/17 10:13:54;;;;;;;0.20;0.20;;;;;;;19.60;40.14;102353.19;5150711;27;20077;-30
2022/04/17 10:16:21;;;;;;;0.20;0.20;;;;;;;19.61;40.00;102351.31;5132890;27;20475;-29
2022/04/17 10:18:48;;;;;;;0.20;0.20;;;;;;;19.61;40.04;102343.88;5149894;27;20042;-32
2022/04/17 10:21:15;;;;;;;0.20;0.20;;;;;;;19.60;40.14;102344.91;5150330;27;20088;-30
2022/04/17 10:23:43;;;;;;;0.20;0.20;;;;;;;19.62;40.12;102344.72;5131372;27;20469;-30
2022/04/17 10:26:09;;;;;;;;;;;;;;;19.61;39.77;102349.41;5150814;27;20068;-29
2022/04/17 10:28:41;;;;;;;0.20;0.20;;;;;;;19.61;40.13;102351.31;5151429;27;19962;-29
2022/04/17 10:31:21;;;;;;;0.20;0.20;;;;;;;19.61;40.00;102349.41;5131711;27;20085;-30
2022/04/17 10:34:21;;;;;;;0.20;0.20;;;;;;;19.61;40.00;102343.03;5150239;27;20099;-30
2022/04/17 10:37:01;;;;;;;0.20;0.20;;;;;;;19.60;40.05;102344.91;5133460;27;20291;-30
2022/04/17 10:39:30;;;;;;;0.20;0.20;;;;;;;19.60;40.13;102333.84;5130408;27;20086;-30
2022/04/17 10:41:57;;;;;;;0.20;0.20;;;;;;;19.61;39.89;102337.50;5149974;27;20078;-30
2022/04/17 10:44:28;;;;;;;0.20;0.20;;;;;;;19.61;39.84;102329.22;5150326;27;20078;-30
2022/04/17 10:46:53;;;;;;;0.20;0.20;;;;;;;19.61;39.81;102320.94;5131998;27;20497;-30
2022/04/17 10:49:21;;;;;;;0.20;0.20;;;;;;;19.60;40.08;102322.78;5128289;27;20042;-29
2022/04/17 10:51:55;;;;;;;0.20;0.20;;;;;;;19.61;39.98;102324.53;5149442;27;20058;-30
2022/04/17 10:54:23;;;;;;;0.20;0.20;;;;;;;19.62;40.05;102317.91;5132608;27;20092;-29
2022/04/17 10:59:34;;;;;;;0.20;0.20;;;;;;;19.61;39.98;102302.41;5178605;27;20120;-24
2022/04/17 11:04:53;;;;;;;0.20;0.20;;;;;;;19.61;39.88;102296.06;5177844;27;20123;-29
2022/04/17 11:07:22;;;;;;;0.20;0.20;;;;;;;19.60;39.88;102288.81;5132495;27;20399;-28
2022/04/17 11:10:17;;;;;;;0.20;0.20;;;;;;;19.60;40.10;102284.09;5131752;27;20091;-28
2022/04/17 11:12:50;;;;;;;0.20;0.20;;;;;;;19.60;39.84;102275.81;5130708;27;20133;-27
2022/04/17 11:15:21;;;;;;;0.20;0.20;;;;;;;19.60;40.00;102275.81;5130347;27;20050;-27
2022/04/17 11:17:49;;;;;;;0.20;0.20;;;;;;;19.60;39.85;102275.81;5167839;27;20070;-27
2022/04/17 11:20:15;;;;;;;0.20;0.20;;;;;;;19.61;39.90;102272.03;5163365;27;20479;-28
2022/04/17 11:22:40;;;;;;;0.20;0.20;;;;;;;19.60;40.14;102262.00;5168029;27;20057;-27
2022/04/17 11:25:09;;;;;;;0.20;0.20;;;;;;;19.62;40.05;102259.03;5151310;27;20046;-29
2022/04/17 11:27:51;;;;;;;0.20;0.20;;;;;;;19.59;39.84;102252.03;5132178;27;20083;-28
2022/04/17 11:30:36;;;;;;;0.20;0.20;;;;;;;19.60;40.01;102245.41;5149593;27;20069;-28
2022/04/17 11:33:03;;;;;;;0.20;0.20;;;;;;;19.60;39.72;102239.06;5167878;27;20477;-27
2022/04/17 11:35:30;;;;;;;0.20;0.20;;;;;;;19.59;40.02;102246.50;5168500;27;20041;-27
2022/04/17 11:38:06;;;;;;;0.20;0.20;;;;;;;19.61;40.02;102243.56;5157372;27;20059;-27
2022/04/17 11:40:34;;;;;;;0.20;0.20;;;;;;;19.60;39.99;102231.59;5122727;27;20093;-28
2022/04/17 11:43:06;;;;;;;0.20;0.20;;;;;;;19.61;39.97;102236.09;5161590;27;20145;-27